createdAt,value
2016-12-23T00:00:17.620Z,73.32
2016-12-23T00:00:45.440Z,73.03
2016-12-23T00:01:13.228Z,73.03
2016-12-23T00:01:41.058Z,73.03
2016-12-23T00:02:08.861Z,73.42
2016-12-23T00:02:36.603Z,73.71
2016-12-23T00:03:04.407Z,73.42
2016-12-23T00:03:32.214Z,73.61
2016-12-23T00:03:59.988Z,73.52
2016-12-23T00:04:27.840Z,73.52
2016-12-23T00:04:55.602Z,73.71
2016-12-23T00:05:23.492Z,73.13
2016-12-23T00:05:51.297Z,72.83
2016-12-23T00:06:19.132Z,72.83
2016-12-23T00:06:47.006Z,72.74
2016-12-23T00:07:14.872Z,72.83
2016-12-23T00:07:42.654Z,72.93
2016-12-23T00:08:10.618Z,73.61
2016-12-23T00:08:38.458Z,73.03
2016-12-23T00:09:06.253Z,73.13
2016-12-23T00:09:34.066Z,72.64
2016-12-23T00:10:01.839Z,73.13
2016-12-23T00:10:29.618Z,73.61
2016-12-23T00:10:57.429Z,73.42
2016-12-23T00:11:25.321Z,73.32
2016-12-23T00:11:53.104Z,73.52
2016-12-23T00:12:20.841Z,73.52
2016-12-23T00:12:48.663Z,73.48
2016-12-23T00:13:16.441Z,74
2016-12-23T00:13:44.184Z,73.77
2016-12-23T00:14:11.977Z,73.58
2016-12-23T00:14:39.739Z,74.45
2016-12-23T00:15:07.508Z,74.45
2016-12-23T00:15:35.306Z,74.93
2016-12-23T00:16:03.215Z,74.74
2016-12-23T00:16:30.978Z,75.03
2016-12-23T00:16:58.773Z,74.35
2016-12-23T00:17:26.617Z,74.35
2016-12-23T00:17:54.375Z,74.16
2016-12-23T00:18:22.186Z,74.26
2016-12-23T00:18:49.929Z,73.96
2016-12-23T00:19:17.712Z,74.74
2016-12-23T00:19:45.480Z,75.23
2016-12-23T00:20:13.290Z,74.93
2016-12-23T00:20:41.040Z,75.13
2016-12-23T00:21:08.813Z,75.03
2016-12-23T00:21:36.552Z,74.84
2016-12-23T00:22:04.446Z,75.03
2016-12-23T00:22:32.193Z,74.84
2016-12-23T00:22:59.963Z,74.45
2016-12-23T00:23:27.751Z,74.74
2016-12-23T00:23:55.508Z,75.03
2016-12-23T00:24:23.338Z,74.45
2016-12-23T00:24:51.127Z,74.45
2016-12-23T00:25:18.970Z,74.06
2016-12-23T00:25:46.853Z,74.16
2016-12-23T00:26:14.597Z,74.26
2016-12-23T00:26:42.367Z,74.84
2016-12-23T00:27:10.208Z,75.03
2016-12-23T00:27:37.949Z,74.93
2016-12-23T00:28:05.731Z,75.03
2016-12-23T00:28:33.612Z,74.45
2016-12-23T00:29:01.538Z,74.93
2016-12-23T00:29:29.357Z,74.35
2016-12-23T00:29:57.081Z,74.06
2016-12-23T00:30:24.854Z,74.54
2016-12-23T00:30:52.653Z,74.54
2016-12-23T00:31:20.396Z,74.54
2016-12-23T00:31:48.175Z,74.16
2016-12-23T00:32:15.984Z,74.26
2016-12-23T00:32:43.759Z,74.26
2016-12-23T00:33:11.566Z,74.06
2016-12-23T00:33:39.342Z,74.16
2016-12-23T00:34:07.109Z,74.16
2016-12-23T00:34:35.049Z,74.16
2016-12-23T00:35:02.857Z,74.35
2016-12-23T00:35:30.672Z,74.35
2016-12-23T00:35:58.464Z,74.45
2016-12-23T00:36:26.331Z,75.03
2016-12-23T00:36:54.112Z,74.93
2016-12-23T00:37:21.898Z,74.35
2016-12-23T00:37:49.679Z,74.54
2016-12-23T00:38:17.474Z,74.64
2016-12-23T00:38:45.249Z,75.03
2016-12-23T00:39:12.999Z,75.03
2016-12-23T00:39:40.822Z,74.74
2016-12-23T00:40:08.600Z,74.84
2016-12-23T00:40:36.398Z,74.93
2016-12-23T00:41:04.235Z,75.13
2016-12-23T00:41:31.983Z,74.84
2016-12-23T00:41:59.783Z,75.13
2016-12-23T00:42:27.541Z,74.74
2016-12-23T00:42:55.327Z,74.93
2016-12-23T00:43:23.227Z,74.74
2016-12-23T00:43:51.024Z,74.45
2016-12-23T00:44:18.829Z,74.35
2016-12-23T00:44:46.606Z,74.64
2016-12-23T00:45:14.348Z,74.16
2016-12-23T00:45:42.134Z,74.45
2016-12-23T00:46:09.960Z,74.16
2016-12-23T00:46:37.743Z,74.06
2016-12-23T00:47:05.513Z,75.03
2016-12-23T00:47:33.302Z,74.93
2016-12-23T00:48:01.076Z,74.45
2016-12-23T00:48:28.901Z,74.06
2016-12-23T00:48:56.659Z,74.26
2016-12-23T00:49:24.453Z,74.06
2016-12-23T00:49:52.220Z,74.06
2016-12-23T00:50:20.013Z,74.06
2016-12-23T00:50:47.813Z,74.45
2016-12-23T00:51:15.646Z,74.26
2016-12-23T00:51:43.464Z,74.45
2016-12-23T00:52:11.227Z,74.16
2016-12-23T00:52:39.016Z,74.16
2016-12-23T00:53:06.807Z,74.54
2016-12-23T00:53:34.598Z,74.06
2016-12-23T00:54:02.414Z,74.26
2016-12-23T00:54:30.305Z,74.26
2016-12-23T00:54:58.067Z,74.16
2016-12-23T00:55:25.875Z,74.64
2016-12-23T00:55:53.697Z,74.84
2016-12-23T00:56:21.571Z,74.84
2016-12-23T00:56:49.308Z,74.45
2016-12-23T00:57:17.055Z,74.26
2016-12-23T00:57:44.831Z,74.26
2016-12-23T00:58:12.576Z,74.35
2016-12-23T00:58:40.368Z,74.16
2016-12-23T00:59:08.154Z,74.45
2016-12-23T00:59:35.938Z,74.06
2016-12-23T01:00:03.725Z,74.06
2016-12-23T01:00:31.487Z,74.16
2016-12-23T01:00:59.306Z,74.45
2016-12-23T01:01:27.094Z,74.16
2016-12-23T01:01:54.912Z,75.13
2016-12-23T01:02:22.681Z,74.93
2016-12-23T01:02:50.571Z,74.93
2016-12-23T01:03:18.324Z,74.64
2016-12-23T01:03:46.197Z,74.93
2016-12-23T01:04:13.968Z,74.64
2016-12-23T01:04:41.824Z,74.93
2016-12-23T01:05:09.674Z,74.35
2016-12-23T01:05:37.417Z,74.26
2016-12-23T01:06:05.151Z,74.45
2016-12-23T01:06:33.080Z,74.16
2016-12-23T01:07:00.844Z,74.54
2016-12-23T01:07:28.604Z,74.54
2016-12-23T01:07:56.403Z,74.16
2016-12-23T01:08:24.152Z,74.16
2016-12-23T01:08:51.919Z,74.35
2016-12-23T01:09:19.698Z,74.45
2016-12-23T01:09:47.452Z,74.54
2016-12-23T01:10:15.225Z,74.74
2016-12-23T01:10:43.021Z,74.93
2016-12-23T01:11:10.840Z,74.84
2016-12-23T01:11:38.615Z,74.93
2016-12-23T01:12:06.411Z,74.64
2016-12-23T01:12:34.290Z,75.03
2016-12-23T01:13:02.057Z,74.45
2016-12-23T01:13:29.828Z,74.35
2016-12-23T01:13:57.634Z,74.06
2016-12-23T01:14:25.510Z,74.35
2016-12-23T01:14:53.283Z,74.35
2016-12-23T01:15:21.282Z,74.54
2016-12-23T01:15:49.039Z,74.74
2016-12-23T01:16:16.800Z,74.26
2016-12-23T01:16:44.588Z,75.03
2016-12-23T01:17:12.375Z,75.13
2016-12-23T01:17:40.179Z,74.16
2016-12-23T01:18:07.962Z,74.45
2016-12-23T01:18:35.733Z,74.35
2016-12-23T01:19:03.520Z,74.54
2016-12-23T01:19:31.323Z,74.64
2016-12-23T01:19:59.072Z,74.74
2016-12-23T01:20:26.899Z,75.23
2016-12-23T01:20:54.700Z,75.03
2016-12-23T01:21:22.625Z,75.03
2016-12-23T01:21:50.396Z,74.74
2016-12-23T01:22:18.163Z,75.03
2016-12-23T01:22:46.026Z,74.84
2016-12-23T01:23:13.808Z,75.32
2016-12-23T01:23:41.600Z,74.74
2016-12-23T01:24:09.364Z,74.84
2016-12-23T01:24:37.154Z,74.93
2016-12-23T01:25:04.922Z,75.13
2016-12-23T01:25:32.700Z,75.23
2016-12-23T01:26:00.509Z,74.74
2016-12-23T01:26:28.268Z,74.93
2016-12-23T01:26:56.087Z,74.84
2016-12-23T01:27:23.927Z,75.03
2016-12-23T01:27:51.681Z,74.93
2016-12-23T01:28:19.543Z,74.45
2016-12-23T01:28:47.389Z,74.45
2016-12-23T01:29:15.195Z,74.45
2016-12-23T01:29:42.965Z,74.26
2016-12-23T01:30:10.791Z,74.06
2016-12-23T01:30:38.572Z,74.16
2016-12-23T01:31:06.351Z,74.26
2016-12-23T01:31:34.152Z,74.35
2016-12-23T01:32:02.083Z,74.16
2016-12-23T01:32:29.953Z,74.45
2016-12-23T01:32:57.737Z,74.45
2016-12-23T01:33:25.538Z,74.54
2016-12-23T01:33:53.320Z,74.16
2016-12-23T01:34:21.152Z,74.16
2016-12-23T01:34:48.957Z,74.35
2016-12-23T01:35:16.760Z,74.16
2016-12-23T01:35:44.514Z,74.45
2016-12-23T01:36:12.366Z,74.54
2016-12-23T01:36:40.136Z,75.13
2016-12-23T01:37:07.876Z,75.03
2016-12-23T01:37:35.751Z,74.93
2016-12-23T01:38:03.547Z,75.03
2016-12-23T01:38:31.338Z,75.03
2016-12-23T01:38:59.222Z,75.23
2016-12-23T01:39:27.014Z,75.23
2016-12-23T01:39:54.940Z,75.13
2016-12-23T01:40:22.710Z,75.03
2016-12-23T01:40:50.462Z,75.03
2016-12-23T01:41:18.239Z,75.03
2016-12-23T01:41:46.045Z,75.03
2016-12-23T01:42:13.864Z,74.84
2016-12-23T01:42:41.703Z,74.64
2016-12-23T01:43:09.472Z,75.13
2016-12-23T01:43:37.250Z,74.74
2016-12-23T01:44:05.009Z,75.23
2016-12-23T01:44:32.788Z,75.23
2016-12-23T01:45:00.552Z,75.03
2016-12-23T01:45:28.333Z,74.54
2016-12-23T01:45:56.121Z,75.03
2016-12-23T01:46:23.882Z,75.03
2016-12-23T01:46:51.643Z,74.74
2016-12-23T01:47:19.546Z,74.74
2016-12-23T01:47:47.336Z,74.84
2016-12-23T01:48:15.086Z,74.84
2016-12-23T01:48:42.904Z,75.09
2016-12-23T01:49:10.741Z,74.99
2016-12-23T01:49:38.542Z,75.19
2016-12-23T01:50:06.304Z,74.41
2016-12-23T01:50:34.111Z,74.41
2016-12-23T01:51:01.902Z,74.16
2016-12-23T01:51:29.672Z,74.22
2016-12-23T01:51:57.536Z,74.41
2016-12-23T01:52:25.325Z,74.12
2016-12-23T01:52:53.090Z,74.22
2016-12-23T01:53:20.975Z,73.54
2016-12-23T01:53:48.706Z,73.64
2016-12-23T01:54:16.457Z,73.54
2016-12-23T01:54:44.254Z,73.73
2016-12-23T01:55:12.016Z,73.64
2016-12-23T01:55:39.900Z,72.86
2016-12-23T01:56:07.660Z,72.77
2016-12-23T01:56:35.425Z,72.28
2016-12-23T01:57:03.175Z,72.47
2016-12-23T01:57:30.967Z,71.89
2016-12-23T01:57:58.762Z,71.89
2016-12-23T01:58:26.509Z,71.7
2016-12-23T01:58:54.300Z,71.6
2016-12-23T01:59:22.072Z,72.09
2016-12-23T01:59:49.846Z,71.31
2016-12-23T02:00:17.665Z,71.89
2016-12-23T02:00:45.437Z,71.5
2016-12-23T02:01:13.311Z,71.5
2016-12-23T02:01:41.142Z,71.7
2016-12-23T02:02:08.920Z,71.41
2016-12-23T02:02:36.671Z,71.41
2016-12-23T02:03:04.528Z,71.41
2016-12-23T02:03:32.317Z,71.22
2016-12-23T02:04:00.172Z,71.6
2016-12-23T02:04:27.972Z,71.6
2016-12-23T02:04:55.739Z,71.41
2016-12-23T02:05:23.515Z,71.5
2016-12-23T02:05:51.262Z,71.8
2016-12-23T02:06:19.018Z,71.6
2016-12-23T02:06:46.788Z,71.5
2016-12-23T02:07:14.524Z,71.41
2016-12-23T02:07:42.362Z,71.8
2016-12-23T02:08:10.170Z,71.5
2016-12-23T02:08:37.960Z,71.7
2016-12-23T02:09:05.703Z,71.7
2016-12-23T02:09:33.509Z,72.09
2016-12-23T02:10:01.297Z,72.09
2016-12-23T02:10:29.085Z,71.8
2016-12-23T02:10:56.866Z,72.28
2016-12-23T02:11:24.646Z,72.09
2016-12-23T02:11:52.469Z,71.89
2016-12-23T02:12:20.387Z,71.31
2016-12-23T02:12:48.286Z,71.02
2016-12-23T02:13:16.092Z,71.12
2016-12-23T02:13:43.851Z,71.7
2016-12-23T02:14:11.755Z,70.63
2016-12-23T02:14:39.638Z,71.12
2016-12-23T02:15:07.408Z,70.73
2016-12-23T02:15:35.185Z,71.02
2016-12-23T02:16:02.974Z,70.92
2016-12-23T02:16:30.732Z,70.92
2016-12-23T02:16:58.491Z,70.44
2016-12-23T02:17:26.276Z,70.54
2016-12-23T02:17:54.052Z,70.63
2016-12-23T02:18:21.841Z,70.83
2016-12-23T02:18:49.642Z,70.83
2016-12-23T02:19:17.386Z,71.12
2016-12-23T02:19:45.176Z,70.83
2016-12-23T02:20:13.101Z,70.92
2016-12-23T02:20:40.888Z,70.63
2016-12-23T02:21:08.649Z,70.92
2016-12-23T02:21:36.418Z,70.79
2016-12-23T02:22:04.229Z,70.73
2016-12-23T02:22:31.986Z,70.83
2016-12-23T02:22:59.768Z,70.83
2016-12-23T02:23:27.511Z,71.02
2016-12-23T02:23:55.280Z,71.02
2016-12-23T02:24:23.026Z,70.73
2016-12-23T02:24:50.839Z,70.4
2016-12-23T02:25:18.657Z,70.63
2016-12-23T02:25:46.497Z,70.5
2016-12-23T02:26:14.357Z,70.92
2016-12-23T02:26:42.111Z,71.08
2016-12-23T02:27:09.879Z,71.08
2016-12-23T02:27:37.630Z,71.18
2016-12-23T02:28:05.417Z,70.73
2016-12-23T02:28:33.204Z,70.98
2016-12-23T02:29:01.000Z,70.54
2016-12-23T02:29:28.815Z,70.7
2016-12-23T02:29:56.602Z,70.7
2016-12-23T02:30:24.394Z,70.98
2016-12-23T02:30:52.241Z,70.5
2016-12-23T02:31:20.038Z,69.92
2016-12-23T02:31:47.801Z,70.11
2016-12-23T02:32:15.620Z,70.01
2016-12-23T02:32:43.401Z,70.4
2016-12-23T02:33:11.135Z,70.4
2016-12-23T02:33:38.889Z,70.79
2016-12-23T02:34:06.680Z,70.7
2016-12-23T02:34:34.480Z,70.89
2016-12-23T02:35:02.202Z,70.7
2016-12-23T02:35:29.952Z,70.31
2016-12-23T02:35:57.825Z,70.21
2016-12-23T02:36:25.574Z,70.5
2016-12-23T02:36:53.345Z,70.7
2016-12-23T02:37:21.135Z,70.4
2016-12-23T02:37:48.938Z,70.79
2016-12-23T02:38:16.738Z,70.98
2016-12-23T02:38:44.550Z,70.98
2016-12-23T02:39:12.327Z,70.6
2016-12-23T02:39:40.128Z,70.7
2016-12-23T02:40:07.899Z,70.7
2016-12-23T02:40:35.668Z,70.79
2016-12-23T02:41:03.457Z,70.7
2016-12-23T02:41:31.220Z,70.6
2016-12-23T02:41:59.027Z,70.79
2016-12-23T02:42:26.793Z,70.98
2016-12-23T02:42:54.550Z,70.31
2016-12-23T02:43:22.289Z,70.6
2016-12-23T02:43:50.062Z,70.4
2016-12-23T02:44:17.845Z,70.79
2016-12-23T02:44:45.621Z,70.79
2016-12-23T02:45:13.419Z,70.98
2016-12-23T02:45:41.235Z,70.89
2016-12-23T02:46:08.976Z,71.08
2016-12-23T02:46:36.853Z,70.79
2016-12-23T02:47:04.597Z,70.89
2016-12-23T02:47:32.366Z,70.89
2016-12-23T02:48:00.157Z,70.4
2016-12-23T02:48:27.904Z,70.79
2016-12-23T02:48:55.680Z,71.08
2016-12-23T02:49:23.442Z,70.98
2016-12-23T02:49:51.218Z,70.89
2016-12-23T02:50:18.960Z,70.21
2016-12-23T02:50:46.863Z,69.34
2016-12-23T02:51:14.637Z,69.15
2016-12-23T02:51:42.532Z,69.15
2016-12-23T02:52:10.301Z,68.95
2016-12-23T02:52:38.142Z,69.05
2016-12-23T02:53:05.917Z,68.76
2016-12-23T02:53:33.782Z,69.15
2016-12-23T02:54:01.535Z,68.47
2016-12-23T02:54:29.387Z,68.37
2016-12-23T02:54:57.188Z,68.37
2016-12-23T02:55:24.986Z,68.27
2016-12-23T02:55:52.806Z,68.33
2016-12-23T02:56:20.611Z,69.11
2016-12-23T02:56:48.402Z,69.21
2016-12-23T02:57:16.165Z,69.34
2016-12-23T02:57:44.075Z,69.31
2016-12-23T02:58:11.827Z,69.24
2016-12-23T02:58:39.615Z,69.01
2016-12-23T02:59:07.395Z,69.11
2016-12-23T02:59:35.223Z,68.63
2016-12-23T03:00:02.976Z,68.15
2016-12-23T03:00:30.810Z,68.91
2016-12-23T03:00:58.623Z,68.63
2016-12-23T03:01:26.375Z,68.05
2016-12-23T03:01:54.183Z,68.33
2016-12-23T03:02:21.940Z,68.15
2016-12-23T03:02:49.723Z,68.43
2016-12-23T03:03:17.544Z,68.63
2016-12-23T03:03:45.294Z,68.33
2016-12-23T03:04:13.041Z,68.15
2016-12-23T03:04:40.825Z,67.95
2016-12-23T03:05:08.687Z,68.24
2016-12-23T03:05:36.488Z,68.18
2016-12-23T03:06:04.247Z,68.05
2016-12-23T03:06:32.036Z,68.33
2016-12-23T03:06:59.928Z,68.15
2016-12-23T03:07:27.691Z,68.15
2016-12-23T03:07:55.455Z,68.05
2016-12-23T03:08:23.262Z,68.05
2016-12-23T03:08:51.051Z,67.95
2016-12-23T03:09:18.860Z,68.15
2016-12-23T03:09:46.763Z,68.15
2016-12-23T03:10:14.502Z,68.15
2016-12-23T03:10:42.283Z,68.15
2016-12-23T03:11:10.041Z,67.76
2016-12-23T03:11:37.791Z,68.05
2016-12-23T03:12:05.603Z,68.43
2016-12-23T03:12:33.367Z,68.33
2016-12-23T03:13:01.206Z,67.95
2016-12-23T03:13:28.993Z,67.85
2016-12-23T03:13:56.795Z,68.05
2016-12-23T03:14:24.635Z,67.85
2016-12-23T03:14:52.433Z,68.05
2016-12-23T03:15:20.183Z,68.15
2016-12-23T03:15:47.996Z,68.33
2016-12-23T03:16:15.823Z,68.24
2016-12-23T03:16:43.629Z,68.05
2016-12-23T03:17:11.446Z,68.18
2016-12-23T03:17:39.219Z,68.05
2016-12-23T03:18:06.979Z,68.15
2016-12-23T03:18:34.878Z,67.85
2016-12-23T03:19:02.690Z,67.85
2016-12-23T03:19:30.472Z,68.15
2016-12-23T03:19:58.313Z,68.15
2016-12-23T03:20:26.090Z,68.24
2016-12-23T03:20:53.863Z,67.95
2016-12-23T03:21:21.737Z,68.33
2016-12-23T03:21:49.524Z,68.73
2016-12-23T03:22:17.344Z,68.82
2016-12-23T03:22:45.127Z,68.63
2016-12-23T03:23:12.917Z,68.91
2016-12-23T03:23:40.781Z,68.91
2016-12-23T03:24:08.525Z,68.73
2016-12-23T03:24:36.304Z,68.53
2016-12-23T03:25:04.089Z,68.53
2016-12-23T03:25:31.879Z,68.05
2016-12-23T03:25:59.659Z,68.15
2016-12-23T03:26:27.425Z,68.53
2016-12-23T03:26:55.218Z,68.53
2016-12-23T03:27:23.064Z,68.82
2016-12-23T03:27:50.852Z,69.01
2016-12-23T03:28:18.640Z,68.91
2016-12-23T03:28:46.456Z,68.43
2016-12-23T03:29:14.212Z,69.31
2016-12-23T03:29:41.995Z,69.4
2016-12-23T03:30:09.722Z,69.4
2016-12-23T03:30:37.559Z,68.63
2016-12-23T03:31:05.316Z,68.63
2016-12-23T03:31:33.083Z,68.53
2016-12-23T03:32:00.854Z,68.73
2016-12-23T03:32:28.649Z,69.11
2016-12-23T03:32:56.465Z,68.05
2016-12-23T03:33:24.243Z,67.95
2016-12-23T03:33:52.035Z,68.63
2016-12-23T03:34:19.829Z,69.01
2016-12-23T03:34:47.579Z,68.63
2016-12-23T03:35:15.369Z,68.82
2016-12-23T03:35:43.186Z,68.53
2016-12-23T03:36:10.934Z,68.82
2016-12-23T03:36:38.716Z,68.15
2016-12-23T03:37:06.536Z,68.73
2016-12-23T03:37:34.344Z,69.11
2016-12-23T03:38:02.078Z,68.73
2016-12-23T03:38:29.825Z,68.63
2016-12-23T03:38:57.614Z,68.91
2016-12-23T03:39:25.418Z,68.82
2016-12-23T03:39:53.224Z,69.01
2016-12-23T03:40:21.018Z,69.31
2016-12-23T03:40:48.881Z,68.73
2016-12-23T03:41:16.650Z,68.63
2016-12-23T03:41:44.462Z,69.11
2016-12-23T03:42:12.224Z,67.95
2016-12-23T03:42:39.998Z,68.15
2016-12-23T03:43:07.773Z,68.33
2016-12-23T03:43:35.518Z,68.24
2016-12-23T03:44:03.343Z,68.11
2016-12-23T03:44:31.139Z,68.79
2016-12-23T03:44:58.932Z,68.73
2016-12-23T03:45:26.721Z,69.37
2016-12-23T03:45:54.449Z,68.59
2016-12-23T03:46:22.306Z,68.91
2016-12-23T03:46:50.116Z,68.53
2016-12-23T03:47:17.891Z,68.82
2016-12-23T03:47:45.686Z,69.01
2016-12-23T03:48:13.525Z,68.73
2016-12-23T03:48:41.362Z,68.73
2016-12-23T03:49:09.141Z,69.31
2016-12-23T03:49:36.966Z,69.4
2016-12-23T03:50:04.729Z,69.11
2016-12-23T03:50:32.627Z,68.82
2016-12-23T03:51:00.414Z,68.43
2016-12-23T03:51:28.164Z,68.43
2016-12-23T03:51:56.090Z,68.15
2016-12-23T03:52:23.882Z,69.01
2016-12-23T03:52:51.676Z,68.82
2016-12-23T03:53:19.511Z,68.82
2016-12-23T03:53:47.362Z,68.73
2016-12-23T03:54:15.190Z,69.5
2016-12-23T03:54:42.972Z,69.21
2016-12-23T03:55:10.761Z,69.01
2016-12-23T03:55:38.509Z,69.31
2016-12-23T03:56:06.424Z,68.63
2016-12-23T03:56:34.289Z,68.53
2016-12-23T03:57:02.062Z,68.63
2016-12-23T03:57:29.896Z,68.82
2016-12-23T03:57:57.652Z,68.91
2016-12-23T03:58:25.439Z,68.82
2016-12-23T03:58:53.205Z,68.91
2016-12-23T03:59:21.092Z,69.31
2016-12-23T03:59:48.858Z,69.08
2016-12-23T04:00:16.603Z,68.98
2016-12-23T04:00:44.394Z,68.98
2016-12-23T04:01:12.180Z,68.98
2016-12-23T04:01:39.936Z,69.27
2016-12-23T04:02:07.845Z,69.37
2016-12-23T04:02:35.655Z,68.98
2016-12-23T04:03:03.397Z,68.79
2016-12-23T04:03:31.161Z,68.98
2016-12-23T04:03:58.933Z,68.3
2016-12-23T04:04:26.715Z,68.05
2016-12-23T04:04:54.505Z,68.01
2016-12-23T04:05:22.310Z,68.98
2016-12-23T04:05:50.041Z,68.88
2016-12-23T04:06:17.816Z,68.82
2016-12-23T04:06:45.588Z,68.59
2016-12-23T04:07:13.414Z,68.49
2016-12-23T04:07:41.161Z,68.73
2016-12-23T04:08:08.978Z,68.53
2016-12-23T04:08:36.881Z,68.15
2016-12-23T04:09:04.689Z,68.11
2016-12-23T04:09:32.452Z,68.79
2016-12-23T04:10:00.211Z,68.69
2016-12-23T04:10:28.006Z,68.59
2016-12-23T04:10:55.902Z,68.15
2016-12-23T04:11:23.805Z,68.11
2016-12-23T04:11:51.603Z,68.11
2016-12-23T04:12:19.437Z,68.33
2016-12-23T04:12:47.208Z,68.53
2016-12-23T04:13:15.033Z,68.05
2016-12-23T04:13:42.784Z,68.15
2016-12-23T04:14:10.590Z,68.15
2016-12-23T04:14:38.374Z,68.11
2016-12-23T04:15:06.110Z,68.69
2016-12-23T04:15:33.894Z,69.08
2016-12-23T04:16:01.773Z,68.91
2016-12-23T04:16:29.554Z,68.79
2016-12-23T04:16:57.354Z,68.91
2016-12-23T04:17:25.115Z,68.98
2016-12-23T04:17:52.877Z,68.53
2016-12-23T04:18:20.643Z,68.79
2016-12-23T04:18:48.390Z,68.4
2016-12-23T04:19:16.130Z,68.59
2016-12-23T04:19:43.972Z,69.17
2016-12-23T04:20:11.762Z,68.98
2016-12-23T04:20:39.557Z,69.37
2016-12-23T04:21:07.359Z,69.17
2016-12-23T04:21:35.142Z,69.27
2016-12-23T04:22:02.959Z,69.17
2016-12-23T04:22:30.845Z,69.27
2016-12-23T04:22:58.668Z,68.98
2016-12-23T04:23:26.481Z,68.98
2016-12-23T04:23:54.282Z,68.98
2016-12-23T04:24:22.039Z,68.88
2016-12-23T04:24:49.813Z,68.88
2016-12-23T04:25:17.607Z,69.31
2016-12-23T04:25:45.356Z,69.11
2016-12-23T04:26:13.161Z,69.31
2016-12-23T04:26:40.978Z,69.31
2016-12-23T04:27:08.816Z,69.31
2016-12-23T04:27:36.576Z,68.82
2016-12-23T04:28:04.356Z,69.31
2016-12-23T04:28:32.144Z,69.27
2016-12-23T04:28:59.928Z,69.08
2016-12-23T04:29:27.692Z,69.27
2016-12-23T04:29:55.488Z,69.27
2016-12-23T04:30:23.269Z,69.27
2016-12-23T04:30:51.039Z,69.46
2016-12-23T04:31:18.827Z,69.17
2016-12-23T04:31:46.638Z,69.46
2016-12-23T04:32:14.441Z,69.37
2016-12-23T04:32:42.233Z,70.24
2016-12-23T04:33:09.989Z,70.53
2016-12-23T04:33:37.783Z,70.14
2016-12-23T04:34:05.561Z,69.85
2016-12-23T04:34:33.353Z,70.24
2016-12-23T04:35:01.167Z,70.24
2016-12-23T04:35:28.964Z,69.85
2016-12-23T04:35:56.726Z,69.85
2016-12-23T04:36:24.480Z,70.34
2016-12-23T04:36:52.232Z,70.14
2016-12-23T04:37:20.079Z,70.34
2016-12-23T04:37:47.874Z,70.34
2016-12-23T04:38:15.683Z,70.14
2016-12-23T04:38:43.470Z,70.24
2016-12-23T04:39:11.261Z,69.95
2016-12-23T04:39:39.004Z,69.66
2016-12-23T04:40:06.813Z,69.75
2016-12-23T04:40:34.593Z,70.43
2016-12-23T04:41:02.406Z,70.24
2016-12-23T04:41:30.198Z,70.34
2016-12-23T04:41:57.979Z,70.92
2016-12-23T04:42:25.760Z,71.01
2016-12-23T04:42:53.511Z,70.92
2016-12-23T04:43:21.309Z,71.01
2016-12-23T04:43:49.077Z,70.92
2016-12-23T04:44:16.931Z,70.53
2016-12-23T04:44:44.711Z,70.62
2016-12-23T04:45:12.511Z,71.01
2016-12-23T04:45:40.291Z,70.92
2016-12-23T04:46:08.061Z,70.82
2016-12-23T04:46:35.989Z,71.11
2016-12-23T04:47:03.810Z,70.62
2016-12-23T04:47:31.604Z,70.72
2016-12-23T04:47:59.394Z,70.72
2016-12-23T04:48:27.276Z,70.72
2016-12-23T04:48:55.063Z,70.24
2016-12-23T04:49:22.834Z,70.62
2016-12-23T04:49:50.629Z,70.92
2016-12-23T04:50:18.403Z,70.24
2016-12-23T04:50:46.184Z,70.34
2016-12-23T04:51:13.933Z,70.14
2016-12-23T04:51:41.698Z,70.62
2016-12-23T04:52:09.468Z,70.53
2016-12-23T04:52:37.261Z,70.34
2016-12-23T04:53:05.064Z,70.14
2016-12-23T04:53:32.878Z,70.43
2016-12-23T04:54:00.692Z,70.62
2016-12-23T04:54:28.453Z,70.72
2016-12-23T04:54:56.223Z,70.62
2016-12-23T04:55:24.025Z,70.62
2016-12-23T04:55:51.775Z,70.82
2016-12-23T04:56:19.494Z,70.92
2016-12-23T04:56:47.267Z,70.43
2016-12-23T04:57:15.031Z,70.62
2016-12-23T04:57:42.807Z,70.53
2016-12-23T04:58:10.595Z,70.72
2016-12-23T04:58:38.384Z,70.53
2016-12-23T04:59:06.197Z,70.53
2016-12-23T04:59:33.948Z,70.53
2016-12-23T05:00:01.840Z,70.62
2016-12-23T05:00:29.616Z,71.11
2016-12-23T05:00:57.393Z,70.53
2016-12-23T05:01:25.163Z,70.43
2016-12-23T05:01:52.931Z,70.62
2016-12-23T05:02:20.658Z,70.53
2016-12-23T05:02:48.496Z,70.92
2016-12-23T05:03:16.259Z,70.43
2016-12-23T05:03:44.028Z,70.43
2016-12-23T05:04:11.792Z,70.92
2016-12-23T05:04:39.566Z,71.11
2016-12-23T05:05:07.335Z,70.53
2016-12-23T05:05:35.119Z,70.34
2016-12-23T05:06:02.873Z,70.34
2016-12-23T05:06:30.697Z,70.4
2016-12-23T05:06:58.451Z,71.11
2016-12-23T05:07:26.225Z,70.4
2016-12-23T05:07:54.002Z,70.98
2016-12-23T05:08:21.861Z,71.56
2016-12-23T05:08:49.711Z,71.56
2016-12-23T05:09:17.459Z,71.46
2016-12-23T05:09:45.331Z,71.26
2016-12-23T05:10:13.226Z,71.26
2016-12-23T05:10:40.981Z,71.26
2016-12-23T05:11:08.752Z,71.66
2016-12-23T05:11:36.554Z,71.56
2016-12-23T05:12:04.300Z,71.36
2016-12-23T05:12:32.070Z,71.66
2016-12-23T05:12:59.923Z,71.56
2016-12-23T05:13:27.732Z,71.36
2016-12-23T05:13:55.495Z,71.56
2016-12-23T05:14:23.341Z,71.94
2016-12-23T05:14:51.136Z,72.04
2016-12-23T05:15:18.958Z,72.42
2016-12-23T05:15:46.704Z,72.24
2016-12-23T05:16:14.487Z,72.24
2016-12-23T05:16:42.265Z,72.24
2016-12-23T05:17:10.050Z,72.33
2016-12-23T05:17:37.885Z,72.42
2016-12-23T05:18:05.724Z,71.94
2016-12-23T05:18:33.755Z,71.75
2016-12-23T05:19:01.556Z,71.84
2016-12-23T05:19:29.344Z,71.75
2016-12-23T05:19:57.091Z,71.94
2016-12-23T05:20:24.878Z,71.84
2016-12-23T05:20:52.645Z,71.84
2016-12-23T05:21:20.437Z,72.24
2016-12-23T05:21:48.178Z,71.84
2016-12-23T05:22:15.938Z,71.98
2016-12-23T05:22:43.698Z,71.94
2016-12-23T05:23:11.461Z,71.84
2016-12-23T05:23:39.212Z,71.94
2016-12-23T05:24:06.983Z,72.04
2016-12-23T05:24:34.776Z,72.04
2016-12-23T05:25:02.612Z,71.84
2016-12-23T05:25:30.370Z,71.98
2016-12-23T05:25:58.119Z,72.33
2016-12-23T05:26:25.876Z,72.14
2016-12-23T05:26:53.613Z,72.33
2016-12-23T05:27:21.340Z,72.14
2016-12-23T05:27:49.105Z,72.33
2016-12-23T05:28:16.859Z,72.33
2016-12-23T05:28:44.630Z,72.33
2016-12-23T05:29:12.385Z,72.42
2016-12-23T05:29:40.161Z,72.14
2016-12-23T05:30:07.982Z,72.33
2016-12-23T05:30:35.733Z,72.04
2016-12-23T05:31:03.519Z,71.94
2016-12-23T05:31:31.383Z,71.94
2016-12-23T05:31:59.160Z,72.24
2016-12-23T05:32:26.914Z,73.1
2016-12-23T05:32:54.701Z,73.01
2016-12-23T05:33:22.469Z,72.91
2016-12-23T05:33:50.266Z,72.62
2016-12-23T05:34:18.088Z,72.91
2016-12-23T05:34:45.909Z,73.39
2016-12-23T05:35:13.797Z,73.39
2016-12-23T05:35:41.546Z,73.39
2016-12-23T05:36:09.357Z,73.68
2016-12-23T05:36:37.161Z,73.68
2016-12-23T05:37:04.942Z,73.97
2016-12-23T05:37:32.732Z,73.97
2016-12-23T05:38:00.504Z,74.27
2016-12-23T05:38:28.307Z,73.59
2016-12-23T05:38:56.107Z,73.68
2016-12-23T05:39:23.965Z,73.46
2016-12-23T05:39:51.729Z,73.78
2016-12-23T05:40:19.499Z,73.39
2016-12-23T05:40:47.289Z,73.49
2016-12-23T05:41:15.044Z,73.39
2016-12-23T05:41:42.810Z,73.68
2016-12-23T05:42:10.590Z,73.59
2016-12-23T05:42:38.448Z,73.3
2016-12-23T05:43:06.223Z,73.3
2016-12-23T05:43:34.025Z,73.3
2016-12-23T05:44:01.862Z,72.33
2016-12-23T05:44:29.623Z,72.91
2016-12-23T05:44:57.377Z,72.72
2016-12-23T05:45:25.144Z,72.81
2016-12-23T05:45:52.942Z,72.52
2016-12-23T05:46:20.684Z,72.52
2016-12-23T05:46:48.485Z,72.72
2016-12-23T05:47:16.271Z,72.81
2016-12-23T05:47:44.091Z,72.91
2016-12-23T05:48:11.877Z,72.52
2016-12-23T05:48:39.606Z,72.62
2016-12-23T05:49:07.419Z,72.72
2016-12-23T05:49:35.195Z,73.1
2016-12-23T05:50:03.018Z,73.2
2016-12-23T05:50:30.784Z,73.39
2016-12-23T05:50:58.543Z,73.3
2016-12-23T05:51:26.312Z,72.81
2016-12-23T05:51:54.146Z,72.81
2016-12-23T05:52:21.964Z,72.72
2016-12-23T05:52:49.857Z,73.1
2016-12-23T05:53:17.666Z,73.68
2016-12-23T05:53:45.418Z,73.49
2016-12-23T05:54:13.209Z,73.78
2016-12-23T05:54:41.060Z,73.49
2016-12-23T05:55:08.790Z,73.68
2016-12-23T05:55:36.574Z,73.49
2016-12-23T05:56:04.396Z,73.88
2016-12-23T05:56:32.169Z,73.49
2016-12-23T05:56:59.987Z,73.49
2016-12-23T05:57:27.861Z,73.78
2016-12-23T05:57:55.725Z,73.3
2016-12-23T05:58:23.485Z,73.49
2016-12-23T05:58:51.347Z,73.49